createdAt,value
2019-04-20T00:00:56.058Z,0.00
2019-04-20T00:01:57.221Z,0.00
2019-04-20T00:02:55.584Z,0.00
2019-04-20T00:03:53.711Z,0.00
2019-04-20T00:04:53.395Z,0.00
2019-04-20T00:05:53.372Z,0.00
2019-04-20T00:06:54.790Z,0.00
2019-04-20T00:07:54.094Z,0.00
2019-04-20T00:08:59.820Z,0.00
2019-04-20T00:10:00.460Z,0.00
2019-04-20T00:11:02.624Z,0.00
2019-04-20T00:12:01.514Z,0.00
2019-04-20T00:14:02.055Z,0.00
2019-04-20T00:14:54.191Z,0.00
2019-04-20T00:15:53.662Z,0.00
2019-04-20T00:16:53.203Z,0.00
2019-04-20T00:17:57.172Z,0.00
2019-04-20T00:18:57.289Z,0.00
2019-04-20T00:19:56.102Z,0.00
2019-04-20T00:21:59.646Z,0.00
2019-04-20T00:22:54.083Z,0.00
2019-04-20T00:23:53.549Z,0.00
2019-04-20T00:24:59.389Z,0.00
2019-04-20T00:26:05.597Z,0.00
2019-04-20T00:28:11.793Z,0.00
2019-04-20T00:29:14.369Z,0.00
2019-04-20T00:30:06.677Z,0.00
2019-04-20T00:31:09.632Z,0.00
2019-04-20T00:32:02.569Z,0.00
2019-04-20T00:33:01.805Z,0.00
2019-04-20T00:34:02.405Z,0.00
2019-04-20T00:34:53.900Z,0.00
2019-04-20T00:35:52.902Z,0.00
2019-04-20T00:36:53.923Z,0.00
2019-04-20T00:37:52.911Z,0.00
2019-04-20T00:38:56.902Z,0.00
2019-04-20T00:39:53.106Z,0.00
2019-04-20T00:40:59.332Z,0.00
2019-04-20T00:41:59.502Z,0.00
2019-04-20T00:42:55.677Z,0.00
2019-04-20T00:43:53.362Z,0.00
2019-04-20T00:45:01.053Z,0.00
2019-04-20T00:46:04.872Z,0.00
2019-04-20T00:47:04.506Z,0.00
2019-04-20T00:47:59.527Z,0.00
2019-04-20T00:48:59.181Z,0.00
2019-04-20T00:50:05.524Z,0.00
2019-04-20T00:51:11.538Z,0.00
2019-04-20T00:52:19.046Z,0.00
2019-04-20T00:53:04.712Z,0.00
2019-04-20T00:53:55.878Z,0.00
2019-04-20T00:54:52.352Z,0.00
2019-04-20T00:55:52.946Z,0.00
2019-04-20T00:57:07.859Z,0.00
2019-04-20T00:57:59.519Z,0.00
2019-04-20T00:59:09.250Z,0.00
2019-04-20T01:00:12.576Z,0.00
2019-04-20T01:01:17.191Z,0.00
2019-04-20T01:02:10.304Z,0.00
2019-04-20T01:03:09.813Z,0.00
2019-04-20T01:04:13.189Z,0.00
2019-04-20T01:05:10.699Z,0.00
2019-04-20T01:06:11.098Z,0.00
2019-04-20T01:07:06.318Z,0.00
2019-04-20T01:07:56.323Z,0.00
2019-04-20T01:08:53.009Z,0.00
2019-04-20T01:09:52.055Z,0.00
2019-04-20T01:10:55.732Z,0.00
2019-04-20T01:11:52.895Z,0.00
2019-04-20T01:12:58.742Z,0.00
2019-04-20T01:13:56.074Z,0.00
2019-04-20T01:16:00.570Z,0.00
2019-04-20T01:17:00.047Z,0.00
2019-04-20T01:17:51.907Z,0.00
2019-04-20T01:18:52.135Z,0.00
2019-04-20T01:19:52.659Z,0.00
2019-04-20T01:20:51.789Z,0.00
2019-04-20T01:21:59.718Z,0.00
2019-04-20T01:23:00.086Z,0.00
2019-04-20T01:23:57.722Z,0.00
2019-04-20T01:24:53.317Z,0.00
2019-04-20T01:25:58.357Z,0.00
2019-04-20T01:26:55.973Z,0.00
2019-04-20T01:28:10.297Z,0.00
2019-04-20T01:29:06.283Z,0.00
2019-04-20T01:30:03.314Z,0.00
2019-04-20T01:31:05.111Z,0.00
2019-04-20T01:32:05.644Z,0.00
2019-04-20T01:33:03.490Z,0.00
2019-04-20T01:34:01.810Z,0.00
2019-04-20T01:35:03.701Z,0.00
2019-04-20T01:36:08.798Z,0.00
2019-04-20T01:37:04.365Z,0.00
2019-04-20T01:38:12.620Z,0.00
2019-04-20T01:39:06.285Z,0.00
2019-04-20T01:39:55.459Z,0.00
2019-04-20T01:40:52.634Z,0.00
2019-04-20T01:41:52.024Z,0.00
2019-04-20T01:42:51.328Z,0.00
2019-04-20T01:43:52.283Z,0.00
2019-04-20T01:44:53.585Z,0.00
2019-04-20T01:45:56.749Z,0.00
2019-04-20T01:47:54.404Z,0.00
2019-04-20T01:48:52.560Z,0.00
2019-04-20T01:49:57.503Z,0.00
2019-04-20T01:50:59.622Z,0.00
2019-04-20T01:52:00.780Z,0.00
2019-04-20T01:53:01.778Z,0.00
2019-04-20T01:54:06.622Z,0.00
2019-04-20T01:55:12.686Z,0.00
2019-04-20T01:56:07.273Z,0.00
2019-04-20T01:57:00.908Z,0.00
2019-04-20T01:58:05.102Z,0.00
2019-04-20T01:59:12.554Z,0.00
2019-04-20T02:01:57.732Z,0.00
2019-04-20T02:02:58.379Z,0.00
2019-04-20T02:04:52.542Z,0.00
2019-04-20T02:05:57.823Z,0.00
2019-04-20T02:06:56.092Z,0.00
2019-04-20T02:07:53.872Z,0.00
2019-04-20T02:08:58.333Z,0.00
2019-04-20T02:09:56.779Z,0.00
2019-04-20T02:10:55.845Z,0.00
2019-04-20T02:11:53.388Z,0.00
2019-04-20T02:12:57.572Z,0.00
2019-04-20T02:13:56.608Z,0.00
2019-04-20T02:14:56.091Z,0.00
2019-04-20T02:17:03.016Z,0.00
2019-04-20T02:18:06.198Z,0.00
2019-04-20T02:19:09.103Z,0.00
2019-04-20T02:20:10.419Z,0.00
2019-04-20T02:21:12.197Z,0.00
2019-04-20T02:22:04.054Z,0.00
2019-04-20T02:23:03.201Z,0.00
2019-04-20T02:24:51.018Z,0.00
2019-04-20T02:26:51.981Z,0.00
2019-04-20T02:27:57.795Z,0.00
2019-04-20T02:29:32.455Z,0.00
2019-04-20T02:31:34.330Z,0.00
2019-04-20T02:32:26.649Z,0.00
2019-04-20T02:34:23.958Z,0.00
2019-04-20T02:35:30.837Z,0.00
2019-04-20T02:36:29.398Z,0.00
2019-04-20T02:37:26.066Z,0.00
2019-04-20T02:39:28.683Z,0.00
2019-04-20T02:40:27.040Z,0.00
2019-04-20T02:41:32.408Z,0.00
2019-04-20T02:42:24.237Z,0.00
2019-04-20T02:43:25.357Z,0.00
2019-04-20T02:45:34.850Z,0.00
2019-04-20T02:46:28.586Z,0.00
2019-04-20T02:47:30.746Z,0.00
2019-04-20T02:48:25.229Z,0.00
2019-04-20T02:49:29.710Z,0.00
2019-04-20T02:50:20.681Z,0.00
2019-04-20T02:51:25.047Z,0.00
2019-04-20T02:52:28.754Z,0.00
2019-04-20T02:53:27.494Z,0.00
2019-04-20T02:55:24.845Z,0.00
2019-04-20T02:56:21.897Z,0.00
2019-04-20T02:57:42.838Z,0.00
2019-04-20T02:59:47.445Z,0.00
2019-04-20T03:02:04.188Z,0.00
2019-04-20T03:03:03.303Z,0.00
2019-04-20T03:05:02.586Z,0.00
2019-04-20T03:07:04.256Z,0.00
2019-04-20T03:08:10.073Z,0.00
2019-04-20T03:09:15.133Z,0.00
2019-04-20T03:10:06.565Z,0.00
2019-04-20T03:11:14.667Z,0.00
2019-04-20T03:12:31.601Z,0.00
2019-04-20T03:13:05.329Z,0.00
2019-04-20T03:14:09.576Z,0.00
2019-04-20T03:15:04.442Z,0.00
2019-04-20T03:16:12.316Z,0.00
2019-04-20T03:17:15.127Z,0.00
2019-04-20T03:18:08.819Z,0.00
2019-04-20T03:19:06.864Z,0.00
2019-04-20T03:20:03.080Z,0.00
2019-04-20T03:21:12.755Z,0.00
2019-04-20T03:22:13.694Z,0.00
2019-04-20T03:23:26.139Z,0.00
2019-04-20T03:24:12.762Z,0.00
2019-04-20T03:25:12.417Z,0.00
2019-04-20T03:26:10.983Z,0.00
2019-04-20T03:27:09.623Z,0.00
2019-04-20T03:28:10.365Z,0.00
2019-04-20T03:29:07.824Z,0.00
2019-04-20T03:30:22.009Z,0.00
2019-04-20T03:31:46.972Z,0.00
2019-04-20T03:32:56.067Z,0.00
2019-04-20T03:33:24.486Z,0.00
2019-04-20T03:35:20.857Z,0.00
2019-04-20T03:36:19.589Z,0.00
2019-04-20T03:37:15.625Z,0.00
2019-04-20T03:38:10.649Z,4.00
2019-04-20T03:39:10.009Z,4.00
2019-04-20T03:40:05.491Z,4.00
2019-04-20T03:41:03.994Z,0.00
2019-04-20T03:41:52.469Z,4.00
2019-04-20T03:42:48.736Z,4.00
2019-04-20T03:43:49.744Z,4.00
2019-04-20T03:44:56.487Z,4.00
2019-04-20T03:45:56.037Z,8.00
2019-04-20T03:46:57.206Z,8.00
2019-04-20T03:48:00.700Z,8.00
2019-04-20T03:49:04.658Z,12.00
2019-04-20T03:50:10.957Z,12.00
2019-04-20T03:51:08.706Z,16.00
2019-04-20T03:52:08.824Z,16.00
2019-04-20T03:53:14.365Z,20.00
2019-04-20T03:54:05.155Z,24.00
2019-04-20T03:55:01.373Z,24.00
2019-04-20T03:56:03.814Z,28.00
2019-04-20T03:57:15.563Z,36.00
2019-04-20T03:58:10.076Z,40.00
2019-04-20T03:59:07.716Z,44.00
2019-04-20T04:00:05.071Z,52.00
2019-04-20T04:01:03.827Z,56.00
2019-04-20T04:02:22.425Z,68.00
2019-04-20T04:03:12.843Z,72.00
2019-04-20T04:04:09.435Z,84.00
2019-04-20T04:05:06.180Z,92.00
2019-04-20T04:06:03.070Z,104.00
2019-04-20T04:06:53.033Z,116.00
2019-04-20T04:09:02.771Z,144.00
2019-04-20T04:11:08.697Z,176.00
2019-04-20T04:11:58.569Z,188.00
2019-04-20T04:12:49.841Z,212.00
2019-04-20T04:13:48.112Z,228.00
2019-04-20T04:14:47.876Z,248.00
2019-04-20T04:15:55.570Z,268.00
2019-04-20T04:16:54.043Z,292.00
2019-04-20T04:17:49.597Z,312.00
2019-04-20T04:18:58.228Z,340.00
2019-04-20T04:19:54.712Z,364.00
2019-04-20T04:22:04.171Z,416.00
2019-04-20T04:23:08.345Z,444.00
2019-04-20T04:25:03.747Z,500.00
2019-04-20T04:26:05.712Z,528.00
2019-04-20T04:27:03.620Z,552.00
2019-04-20T04:28:01.575Z,580.00
2019-04-20T04:29:13.693Z,608.00
2019-04-20T04:30:05.364Z,636.00
2019-04-20T04:31:09.495Z,664.00
2019-04-20T04:32:12.838Z,696.00
2019-04-20T04:33:37.360Z,724.00
2019-04-20T04:34:22.883Z,752.00
2019-04-20T04:36:01.110Z,804.00
2019-04-20T04:37:03.661Z,832.00
2019-04-20T04:38:06.684Z,864.00
2019-04-20T04:39:08.862Z,888.00
2019-04-20T04:40:14.681Z,916.00
2019-04-20T04:41:17.073Z,944.00
2019-04-20T04:42:22.324Z,972.00
2019-04-20T04:43:10.259Z,996.00
2019-04-20T04:44:53.639Z,1052.00
2019-04-20T04:45:47.139Z,1084.00
2019-04-20T04:46:54.700Z,1108.00
2019-04-20T04:47:47.343Z,1132.00
2019-04-20T04:48:50.801Z,1160.00
2019-04-20T04:49:56.196Z,1184.00
2019-04-20T04:50:55.636Z,1212.00
2019-04-20T04:51:55.307Z,1240.00
2019-04-20T04:52:57.334Z,1264.00
2019-04-20T04:53:55.091Z,1288.00
2019-04-20T04:54:54.321Z,1312.00
2019-04-20T04:55:52.879Z,1340.00
2019-04-20T04:56:48.338Z,1364.00
2019-04-20T04:57:47.380Z,1388.00
2019-04-20T04:58:46.845Z,1412.00
2019-04-20T04:59:46.803Z,1436.00
2019-04-20T05:00:49.143Z,1456.00
2019-04-20T05:01:51.446Z,1480.00
2019-04-20T05:02:53.804Z,1504.00
2019-04-20T05:04:19.156Z,1524.00
2019-04-20T05:05:10.084Z,1548.00
2019-04-20T05:06:08.896Z,1568.00
2019-04-20T05:06:59.548Z,1592.00
2019-04-20T05:07:58.469Z,1612.00
2019-04-20T05:08:51.226Z,1636.00
2019-04-20T05:09:46.618Z,1656.00
2019-04-20T05:10:47.604Z,1676.00
2019-04-20T05:11:51.759Z,1696.00
2019-04-20T05:12:46.499Z,1716.00
2019-04-20T05:13:55.978Z,1736.00
2019-04-20T05:16:00.415Z,1776.00
2019-04-20T05:17:04.165Z,1796.00
2019-04-20T05:18:09.603Z,1820.00
2019-04-20T05:19:10.446Z,1840.00
2019-04-20T05:20:02.589Z,1860.00
2019-04-20T05:21:05.903Z,1876.00
2019-04-20T05:23:04.011Z,1912.00
2019-04-20T05:24:03.260Z,1932.00
2019-04-20T05:25:08.380Z,1948.00
2019-04-20T05:26:12.179Z,1968.00
2019-04-20T05:27:07.258Z,1984.00
2019-04-20T05:28:03.046Z,2004.00
2019-04-20T05:28:55.722Z,2020.00
2019-04-20T05:29:46.748Z,2040.00
2019-04-20T05:30:51.970Z,2056.00
2019-04-20T05:31:50.963Z,2072.00
2019-04-20T05:32:54.817Z,2088.00
2019-04-20T05:34:11.482Z,2108.00
2019-04-20T05:35:12.172Z,2124.00
2019-04-20T05:36:09.560Z,2140.00
2019-04-20T05:40:12.325Z,2212.00
2019-04-20T05:42:03.247Z,2248.00
2019-04-20T05:43:09.253Z,2260.00
2019-04-20T05:44:02.086Z,2280.00
2019-04-20T05:45:01.932Z,2296.00
2019-04-20T05:46:04.200Z,2312.00
2019-04-20T05:47:09.265Z,2328.00
2019-04-20T05:48:03.113Z,2340.00
2019-04-20T05:49:13.797Z,2352.00
2019-04-20T05:50:01.230Z,2368.00
2019-04-20T05:51:04.370Z,2380.00
2019-04-20T05:52:17.446Z,2392.00
2019-04-20T05:53:09.951Z,2408.00
2019-04-20T05:54:11.477Z,2428.00
2019-04-20T05:55:02.996Z,2440.00
2019-04-20T05:56:02.563Z,2456.00
2019-04-20T06:00:08.315Z,2508.00
2019-04-20T06:01:10.874Z,2524.00
2019-04-20T06:02:10.166Z,2540.00
2019-04-20T06:03:07.372Z,2556.00
2019-04-20T06:04:02.563Z,2572.00
2019-04-20T06:05:08.674Z,2588.00
2019-04-20T06:07:09.320Z,2620.00
2019-04-20T06:08:05.439Z,2632.00
2019-04-20T06:09:14.245Z,2648.00
2019-04-20T06:10:05.997Z,2660.00
2019-04-20T06:11:09.322Z,2672.00
2019-04-20T06:13:04.432Z,2692.00
2019-04-20T06:13:56.887Z,2700.00
2019-04-20T06:15:00.334Z,2712.00
2019-04-20T06:16:03.952Z,2724.00
2019-04-20T06:17:11.140Z,2736.00
2019-04-20T06:18:03.865Z,2748.00
2019-04-20T06:19:14.261Z,2756.00
2019-04-20T06:20:06.218Z,2772.00
2019-04-20T06:21:13.482Z,2780.00
2019-04-20T06:22:12.709Z,2792.00
2019-04-20T06:23:12.161Z,2804.00
2019-04-20T06:24:10.647Z,2816.00
2019-04-20T06:26:19.478Z,2836.00
2019-04-20T06:27:05.617Z,2848.00
2019-04-20T06:28:02.074Z,2864.00
2019-04-20T06:29:00.376Z,2868.00
2019-04-20T06:30:04.255Z,2876.00
2019-04-20T06:30:59.442Z,2888.00
2019-04-20T06:32:10.952Z,2896.00
2019-04-20T06:33:19.035Z,2908.00
2019-04-20T06:34:19.621Z,2912.00
2019-04-20T06:35:16.593Z,2924.00
2019-04-20T06:38:10.017Z,2952.00
2019-04-20T06:39:10.285Z,2964.00
2019-04-20T06:40:23.947Z,2972.00
2019-04-20T06:41:13.289Z,2980.00
2019-04-20T06:42:14.093Z,2988.00
2019-04-20T06:43:09.009Z,2992.00
2019-04-20T06:44:08.515Z,3004.00
2019-04-20T06:45:04.211Z,3016.00
2019-04-20T06:47:08.990Z,3028.00
2019-04-20T06:48:05.902Z,3036.00
2019-04-20T06:49:15.010Z,3048.00
2019-04-20T06:50:12.792Z,3056.00
2019-04-20T06:50:57.189Z,3064.00
2019-04-20T06:52:12.743Z,3076.00
2019-04-20T06:53:13.245Z,3080.00
2019-04-20T06:53:52.778Z,3092.00
2019-04-20T06:55:02.775Z,3104.00
2019-04-20T06:56:12.013Z,3116.00
2019-04-20T06:57:05.846Z,3128.00
2019-04-20T06:58:17.566Z,3140.00
2019-04-20T06:59:12.294Z,3148.00
2019-04-20T07:00:09.582Z,3160.00
2019-04-20T07:01:06.609Z,3160.00
2019-04-20T07:02:11.944Z,3164.00
2019-04-20T07:03:05.734Z,3172.00
2019-04-20T07:04:27.300Z,3180.00
2019-04-20T07:06:20.879Z,3200.00
2019-04-20T07:07:09.313Z,3204.00
2019-04-20T07:08:15.181Z,3216.00
2019-04-20T07:11:12.598Z,3240.00
2019-04-20T07:13:00.264Z,3252.00
2019-04-20T07:13:53.448Z,3272.00
2019-04-20T07:14:55.277Z,3280.00
2019-04-20T07:15:56.970Z,3288.00
2019-04-20T07:17:09.683Z,3300.00
2019-04-20T07:18:28.654Z,3308.00
2019-04-20T07:19:09.742Z,3320.00
2019-04-20T07:20:00.041Z,3336.00
2019-04-20T07:21:07.163Z,3352.00
2019-04-20T07:22:19.951Z,3376.00
2019-04-20T07:23:18.923Z,3416.00
2019-04-20T07:25:02.404Z,3724.00
2019-04-20T07:26:12.812Z,4100.00
2019-04-20T07:27:00.741Z,4272.00
2019-04-20T07:28:05.764Z,4316.00
2019-04-20T07:29:07.336Z,4340.00
2019-04-20T07:30:06.325Z,4356.00
2019-04-20T07:37:33.029Z,4432.00
2019-04-20T07:39:07.585Z,4396.00
2019-04-20T07:40:05.878Z,4384.00
2019-04-20T07:40:59.614Z,4388.00
2019-04-20T07:42:08.179Z,4392.00
2019-04-20T07:44:28.132Z,4392.00
2019-04-20T07:45:12.292Z,4388.00
2019-04-20T07:46:09.317Z,4384.00
2019-04-20T07:47:09.003Z,4380.00
2019-04-20T07:49:07.354Z,4376.00
2019-04-20T07:50:02.454Z,4380.00
2019-04-20T07:50:55.590Z,4388.00
2019-04-20T07:51:46.053Z,4392.00
2019-04-20T07:52:53.997Z,4404.00
2019-04-20T07:54:10.129Z,4408.00
2019-04-20T07:55:28.549Z,4424.00
2019-04-20T07:56:07.272Z,4444.00
2019-04-20T07:57:03.851Z,4456.00
2019-04-20T07:57:57.968Z,4468.00
2019-04-20T07:58:51.182Z,4484.00
2019-04-20T08:01:09.078Z,4524.00
2019-04-20T08:03:12.900Z,4564.00
2019-04-20T08:04:07.815Z,4588.00
2019-04-20T08:05:03.481Z,4604.00
2019-04-20T08:05:56.243Z,4628.00
2019-04-20T08:06:48.762Z,4644.00
2019-04-20T08:07:53.663Z,4676.00
2019-04-20T08:08:57.325Z,4696.00
2019-04-20T08:10:58.640Z,4732.00
2019-04-20T08:15:13.639Z,4760.00
2019-04-20T08:17:14.381Z,4780.00
2019-04-20T08:18:03.942Z,4800.00
2019-04-20T08:21:03.825Z,4860.00
2019-04-20T08:23:12.206Z,4864.00
2019-04-20T08:24:02.025Z,4880.00
2019-04-20T08:25:00.578Z,4912.00
2019-04-20T08:25:52.239Z,4928.00
2019-04-20T08:26:50.742Z,4932.00
2019-04-20T08:28:51.951Z,4980.00
2019-04-20T08:29:57.728Z,4996.00
2019-04-20T08:31:02.439Z,5020.00
2019-04-20T08:32:58.474Z,5072.00
2019-04-20T08:34:12.003Z,5088.00
2019-04-20T08:35:05.560Z,5080.00
2019-04-20T08:36:05.005Z,5080.00
2019-04-20T08:37:00.987Z,5108.00
2019-04-20T08:38:25.136Z,5112.00
2019-04-20T08:40:10.192Z,5144.00
2019-04-20T08:40:59.670Z,5156.00
2019-04-20T08:42:06.397Z,5176.00
2019-04-20T08:43:17.245Z,5208.00
2019-04-20T08:44:09.894Z,5240.00
2019-04-20T08:45:03.997Z,5276.00
2019-04-20T08:46:07.962Z,5308.00
2019-04-20T08:47:16.373Z,5308.00
2019-04-20T08:48:16.254Z,5312.00
2019-04-20T08:49:03.267Z,5336.00
2019-04-20T08:50:11.717Z,5320.00
2019-04-20T08:51:03.504Z,5320.00
2019-04-20T08:52:13.058Z,5328.00
2019-04-20T08:54:04.617Z,5388.00
2019-04-20T08:55:05.176Z,5420.00
2019-04-20T08:55:55.846Z,5432.00
2019-04-20T08:56:51.015Z,5320.00
2019-04-20T08:57:42.582Z,5504.00
2019-04-20T08:58:43.457Z,5532.00
2019-04-20T08:59:44.323Z,5568.00
2019-04-20T09:00:50.086Z,5560.00
2019-04-20T09:01:42.718Z,5608.00
2019-04-20T09:02:48.873Z,5560.00
2019-04-20T09:03:54.948Z,5644.00
2019-04-20T09:04:49.021Z,5668.00
2019-04-20T09:05:52.298Z,5700.00
2019-04-20T09:06:57.219Z,5740.00
2019-04-20T09:08:55.528Z,5868.00
2019-04-20T09:10:12.381Z,5916.00
2019-04-20T09:11:03.909Z,5976.00
2019-04-20T09:12:03.293Z,6036.00
2019-04-20T09:13:48.454Z,6108.00
2019-04-20T09:14:42.980Z,6168.00
2019-04-20T09:15:42.581Z,6236.00
2019-04-20T09:16:50.501Z,6280.00
2019-04-20T09:17:47.472Z,6308.00
2019-04-20T09:18:52.496Z,6276.00
2019-04-20T09:19:52.774Z,6292.00
2019-04-20T09:20:50.594Z,6284.00
2019-04-20T09:21:51.044Z,6256.00
2019-04-20T09:22:49.383Z,6304.00
2019-04-20T09:24:00.178Z,6360.00
2019-04-20T09:27:01.358Z,6444.00
2019-04-20T09:27:47.602Z,6472.00
2019-04-20T09:28:58.169Z,6616.00
2019-04-20T09:30:01.959Z,6604.00
2019-04-20T09:30:57.228Z,6696.00
2019-04-20T09:31:52.020Z,6784.00
2019-04-20T09:32:56.659Z,6900.00
2019-04-20T09:33:55.899Z,7076.00
2019-04-20T09:34:59.728Z,7200.00
2019-04-20T09:35:57.888Z,7348.00
2019-04-20T09:37:59.656Z,7556.00
2019-04-20T09:38:52.901Z,7608.00
2019-04-20T09:40:06.081Z,7672.00
2019-04-20T09:40:56.880Z,7728.00
2019-04-20T09:41:58.808Z,7792.00
2019-04-20T09:42:42.127Z,7732.00
2019-04-20T09:43:43.151Z,7852.00
2019-04-20T09:44:47.808Z,7916.00
2019-04-20T09:45:47.370Z,7960.00
2019-04-20T09:46:46.253Z,8012.00
2019-04-20T09:47:46.836Z,8064.00
2019-04-20T09:48:50.509Z,8120.00
2019-04-20T09:49:51.826Z,8192.00
2019-04-20T09:51:05.131Z,8220.00
2019-04-20T09:51:59.760Z,8252.00
2019-04-20T09:53:01.223Z,8240.00
2019-04-20T09:53:52.630Z,8308.00
2019-04-20T09:54:59.297Z,8404.00
2019-04-20T09:55:57.686Z,8468.00
2019-04-20T09:57:05.188Z,8552.00
2019-04-20T09:57:59.024Z,8736.00
2019-04-20T09:59:06.784Z,8916.00
2019-04-20T09:59:58.285Z,9040.00
2019-04-20T10:01:45.958Z,9160.00
2019-04-20T10:02:42.927Z,9176.00
2019-04-20T10:03:42.931Z,9228.00
2019-04-20T10:04:42.034Z,9292.00
2019-04-20T10:05:43.275Z,9376.00
2019-04-20T10:06:43.482Z,9368.00
2019-04-20T10:07:43.929Z,9456.00
2019-04-20T10:08:49.223Z,9544.00
2019-04-20T10:09:44.957Z,9600.00
2019-04-20T10:10:45.396Z,9564.00
2019-04-20T10:11:45.085Z,9640.00
2019-04-20T10:12:42.317Z,9656.00
2019-04-20T10:14:42.716Z,9700.00
2019-04-20T10:15:41.978Z,9744.00
2019-04-20T10:16:42.059Z,9808.00
2019-04-20T10:17:43.579Z,9872.00
2019-04-20T10:18:46.765Z,9932.00
2019-04-20T10:19:44.508Z,9952.00
2019-04-20T10:20:43.451Z,10012.00
2019-04-20T10:21:41.986Z,10112.00
2019-04-20T10:22:42.573Z,10260.00
2019-04-20T10:23:42.849Z,10416.00
2019-04-20T10:24:42.374Z,10492.00
2019-04-20T10:26:42.788Z,10728.00
2019-04-20T10:27:43.555Z,10856.00
2019-04-20T10:28:41.945Z,10988.00
2019-04-20T10:29:42.257Z,11112.00
2019-04-20T10:30:41.940Z,11368.00
2019-04-20T10:31:46.913Z,11492.00
2019-04-20T10:32:45.717Z,11672.00
2019-04-20T10:33:41.932Z,11872.00
2019-04-20T10:34:41.939Z,12040.00
2019-04-20T10:35:43.493Z,12264.00
2019-04-20T10:37:42.068Z,12764.00
2019-04-20T10:38:42.368Z,13048.00
2019-04-20T10:39:42.652Z,13380.00
2019-04-20T10:40:54.133Z,13728.00
2019-04-20T10:41:49.172Z,14260.00
2019-04-20T10:42:41.935Z,14996.00
2019-04-20T10:43:42.858Z,17952.00
2019-04-20T10:44:42.988Z,39968.00
2019-04-20T10:45:41.927Z,63264.00
2019-04-20T10:46:42.869Z,73440.00
2019-04-20T10:47:43.146Z,75968.00
2019-04-20T10:48:47.978Z,72864.00
2019-04-20T10:49:42.955Z,73696.00
2019-04-20T10:50:43.106Z,76064.00
2019-04-20T10:51:41.918Z,75936.00
2019-04-20T10:52:41.883Z,74240.00
2019-04-20T10:53:42.421Z,77280.00
2019-04-20T10:54:42.670Z,79072.00
2019-04-20T10:56:41.894Z,82432.00
2019-04-20T10:57:41.890Z,80576.00
2019-04-20T10:58:41.880Z,80960.00
2019-04-20T10:59:43.606Z,81216.00
2019-04-20T11:00:42.048Z,75552.00
2019-04-20T11:01:43.327Z,75808.00
2019-04-20T11:02:44.646Z,82656.00
2019-04-20T11:03:42.762Z,77504.00
2019-04-20T11:04:41.866Z,71808.00
2019-04-20T11:05:42.598Z,72992.00
2019-04-20T11:06:42.744Z,75936.00
2019-04-20T11:07:41.855Z,78208.00
2019-04-20T11:08:42.517Z,73600.00
2019-04-20T11:09:42.830Z,69376.00
2019-04-20T11:10:56.012Z,75680.00
2019-04-20T11:11:41.849Z,79680.00
2019-04-20T11:13:43.410Z,78656.00
2019-04-20T11:15:42.318Z,80480.00
2019-04-20T11:16:42.422Z,82528.00
2019-04-20T11:17:41.854Z,82752.00
2019-04-20T11:18:43.133Z,81888.00
2019-04-20T11:19:43.266Z,80192.00
2019-04-20T11:20:43.523Z,82592.00
2019-04-20T11:22:42.237Z,83040.00
2019-04-20T11:24:41.839Z,82272.00
2019-04-20T11:25:42.187Z,81312.00
2019-04-20T11:26:43.931Z,83520.00
2019-04-20T11:27:42.153Z,81696.00
2019-04-20T11:28:42.080Z,79936.00
2019-04-20T11:29:42.236Z,83040.00
2019-04-20T11:30:41.878Z,80832.00
2019-04-20T11:31:47.307Z,81504.00
2019-04-20T11:32:42.188Z,78048.00
2019-04-20T11:33:42.550Z,71008.00
2019-04-20T11:34:43.608Z,77184.00
2019-04-20T11:35:43.671Z,82496.00
2019-04-20T11:36:43.274Z,76896.00
2019-04-20T11:38:42.810Z,75680.00
2019-04-20T11:39:43.121Z,79264.00
2019-04-20T11:40:42.289Z,79072.00
2019-04-20T11:41:43.518Z,77088.00
2019-04-20T11:42:41.822Z,76960.00
2019-04-20T11:43:41.986Z,76960.00
2019-04-20T11:44:42.451Z,77728.00
2019-04-20T11:45:42.781Z,81280.00
2019-04-20T11:46:42.936Z,82336.00
2019-04-20T11:47:43.172Z,79840.00
2019-04-20T11:48:43.274Z,77184.00
2019-04-20T11:49:41.829Z,74848.00
2019-04-20T11:50:43.303Z,77312.00
2019-04-20T11:51:41.826Z,78432.00
2019-04-20T11:52:45.941Z,77120.00
2019-04-20T11:53:42.723Z,68960.00
2019-04-20T11:54:42.195Z,62016.00
2019-04-20T11:55:42.359Z,66944.00
2019-04-20T11:56:45.161Z,69728.00
2019-04-20T11:57:43.081Z,69856.00
2019-04-20T11:58:42.837Z,70656.00
2019-04-20T12:00:52.190Z,71840.00
2019-04-20T12:01:49.338Z,74144.00
2019-04-20T12:02:44.366Z,74688.00
2019-04-20T12:03:52.972Z,73088.00
2019-04-20T12:04:49.225Z,68928.00
2019-04-20T12:05:46.612Z,64160.00
2019-04-20T12:06:43.071Z,65344.00
2019-04-20T12:07:42.717Z,68960.00
2019-04-20T12:08:42.692Z,68608.00
2019-04-20T12:09:41.938Z,70944.00
2019-04-20T12:10:43.799Z,71712.00
2019-04-20T12:12:04.123Z,73856.00
2019-04-20T12:16:45.884Z,69952.00
2019-04-20T12:17:41.834Z,67584.00
2019-04-20T12:18:42.160Z,68736.00
2019-04-20T12:19:41.975Z,69632.00
2019-04-20T12:20:42.946Z,70400.00
2019-04-20T12:22:42.134Z,67968.00
2019-04-20T12:23:42.359Z,67584.00
2019-04-20T12:24:42.333Z,68096.00
2019-04-20T12:25:43.225Z,65536.00
2019-04-20T12:26:42.729Z,63936.00
2019-04-20T12:27:48.660Z,66400.00
2019-04-20T12:28:43.272Z,66400.00
2019-04-20T12:29:43.329Z,66944.00
2019-04-20T12:30:42.040Z,67616.00
2019-04-20T12:31:44.360Z,65088.00
2019-04-20T12:33:42.236Z,67744.00
2019-04-20T12:34:43.345Z,68448.00
2019-04-20T12:35:42.575Z,70656.00
2019-04-20T12:36:42.798Z,70528.00
2019-04-20T12:37:43.052Z,66336.00
2019-04-20T12:38:43.198Z,62144.00
2019-04-20T12:39:42.869Z,56544.00
2019-04-20T12:40:42.043Z,49824.00
2019-04-20T12:41:49.846Z,50368.00
2019-04-20T12:43:41.882Z,32800.00
2019-04-20T12:44:41.894Z,19648.00
2019-04-20T12:46:43.633Z,18208.00
2019-04-20T12:47:42.106Z,20608.00
2019-04-20T12:48:41.909Z,24128.00
2019-04-20T12:49:41.823Z,39520.00
2019-04-20T12:50:41.812Z,54016.00
2019-04-20T12:52:41.859Z,52672.00
2019-04-20T12:53:42.588Z,51392.00
2019-04-20T12:54:44.507Z,43296.00
2019-04-20T12:55:41.978Z,45376.00
2019-04-20T12:56:42.638Z,46912.00
2019-04-20T12:57:42.780Z,44320.00
2019-04-20T12:58:43.492Z,44800.00
2019-04-20T12:59:44.359Z,44704.00
2019-04-20T13:00:41.799Z,40896.00
2019-04-20T13:01:42.097Z,46400.00
2019-04-20T13:02:43.164Z,47488.00
2019-04-20T13:03:41.862Z,51232.00
2019-04-20T13:04:41.950Z,51648.00
2019-04-20T13:05:41.805Z,52256.00
2019-04-20T13:06:42.787Z,51744.00
2019-04-20T13:07:47.323Z,48160.00
2019-04-20T13:08:47.221Z,48672.00
2019-04-20T13:09:41.767Z,53632.00
2019-04-20T13:10:42.357Z,54464.00
2019-04-20T13:12:42.562Z,51872.00
2019-04-20T13:13:41.740Z,53152.00
2019-04-20T13:14:42.342Z,53504.00
2019-04-20T13:15:42.479Z,52800.00
2019-04-20T13:16:41.769Z,51136.00
2019-04-20T13:17:42.225Z,50560.00
2019-04-20T13:18:43.262Z,52192.00
2019-04-20T13:19:42.357Z,54304.00
2019-04-20T13:20:41.925Z,54816.00
2019-04-20T13:22:44.154Z,55648.00
2019-04-20T13:23:42.789Z,54944.00
2019-04-20T13:24:43.059Z,56000.00
2019-04-20T13:26:42.799Z,54752.00
2019-04-20T13:27:42.988Z,56704.00
2019-04-20T13:29:43.078Z,57856.00
2019-04-20T13:30:42.012Z,56672.00
2019-04-20T13:31:42.049Z,54048.00
2019-04-20T13:32:41.847Z,53984.00
2019-04-20T13:33:43.133Z,54560.00
2019-04-20T13:34:42.339Z,53824.00
2019-04-20T13:35:41.713Z,52352.00
2019-04-20T13:38:41.845Z,49504.00
2019-04-20T13:39:42.729Z,48832.00
2019-04-20T13:40:41.837Z,50336.00
2019-04-20T13:41:42.127Z,50144.00
2019-04-20T13:42:41.754Z,49888.00
2019-04-20T13:43:41.915Z,48128.00
2019-04-20T13:44:43.157Z,47232.00
2019-04-20T13:46:42.914Z,44032.00
2019-04-20T13:47:43.092Z,41728.00
2019-04-20T13:48:42.722Z,39808.00
2019-04-20T13:49:43.045Z,40960.00
2019-04-20T13:50:42.296Z,49824.00
2019-04-20T13:51:41.833Z,45920.00
2019-04-20T13:52:42.675Z,32096.00
2019-04-20T13:53:41.768Z,20160.00
2019-04-20T13:54:42.133Z,16704.00
2019-04-20T13:55:41.732Z,15904.00
2019-04-20T13:56:41.831Z,15520.00
2019-04-20T13:57:42.010Z,15232.00
2019-04-20T13:58:43.668Z,14916.00
2019-04-20T13:59:42.008Z,14836.00
2019-04-20T14:00:42.898Z,14692.00
2019-04-20T14:01:41.761Z,14680.00
2019-04-20T14:02:42.629Z,14804.00
2019-04-20T14:03:42.889Z,15152.00